Portada
METAR-TAF:

METAR-TAF

Aeroports :

Tirupati, Índia

latitud: 13-38-16N, longitud: 79-32-50E, altitud: 107 m

Observació

L'informe es va fer fa 19 minuts, a les 11:00 UTC
Vent 12 kt del Nord-Est amb ràfegues de 22 kt
Temperatura 29°C
Humitat 58%
Pressió 1012 hPa
Visibilitat: 3000 m
Núvols disperses a una alçada de 2000 ft
calitja

METAR: VOTP 151100Z 05012G22KT 3000 HZ SCT020 29/20 Q1012

Hora: 16:49 (11:19 UTC)

Pronòstic

L'informe es va fer fa 3 hores i 19 minuts, a les 08:00 UTC
Pronòstic vàlid del 15 a les 09 UTC al 15 a les 18 UTC
Vent 10 kt del Nord-Est amb ràfegues de 20 kt
Visibilitat: 4000 m
Núvols disperses a una alçada de 2000 ft
Núvols disperses a una alçada de 10000 ft
calitja

TAF: VOTP 150800Z 1509/1518 05010G20KT 4000 HZ SCT020 SCT100

Observacions i pronòstics meteorològics de més de 4000 aeroports (METAR i TAF).

Les estacions disponibles són els punts grocs i vermells al mapa.

Posi el ratolí al punt desitjat per veure el nom de l'estació.

Feu clic per veure les observacions i els pronòstics meteorològics.

Per canviar el mapa: feu clic els botons verds amb una creu de color negre per apropar; al botó verd amb un guió per allunyar la imatge; o en les fletxes verdes per a mapes adjacents.


METAR-TAF: